Time;durP1;ratioP1;P1;durP2;ratioP2;P2;SDS_P1;SDS_P2;PMS_P1;PMS_P2;Temp;Humidity;BMP_temperature;BMP_pressure;BME280_temperature;BME280_humidity;BME280_pressure;Samples;Min_cycle;Max_cycle;Signal;HPM_P1;HPM_P2
2023/09/21 00:02:18;;;;;;;6.20;2.80;;;;;;;;;;7367014;19;20073;-67
2023/09/21 00:04:44;;;;;;;6.13;2.58;;;;;;;;;;7389517;19;20003;-68
2023/09/21 00:07:10;;;;;;;8.98;2.97;;;;;;;;;;7367911;19;19998;-67
2023/09/21 00:09:35;;;;;;;8.68;2.88;;;;;;;;;;7368687;19;20006;-69
2023/09/21 00:12:01;;;;;;;7.68;2.75;;;;;;;;;;7366741;19;20010;-69
2023/09/21 00:14:26;;;;;;;6.78;2.90;;;;;;;;;;7367511;19;20013;-67
2023/09/21 00:16:51;;;;;;;6.10;2.50;;;;;;;;;;7389643;19;20059;-68
2023/09/21 00:19:17;;;;;;;5.22;2.42;;;;;;;;;;7367758;19;20053;-67
2023/09/21 00:21:43;;;;;;;6.78;2.60;;;;;;;;;;7366744;19;20110;-69
2023/09/21 00:24:12;;;;;;;7.60;2.65;;;;;;;;;;7367109;19;20055;-68
2023/09/21 00:26:37;;;;;;;5.35;2.65;;;;;;;;;;7368088;19;20774;-69
2023/09/21 00:29:03;;;;;;;6.88;2.80;;;;;;;;;;7389043;19;20182;-68
2023/09/21 00:31:29;;;;;;;6.50;2.90;;;;;;;;;;7366551;19;20009;-68
2023/09/21 00:33:55;;;;;;;6.07;2.70;;;;;;;;;;7367472;19;20468;-68
2023/09/21 00:36:21;;;;;;;6.55;2.53;;;;;;;;;;7366697;19;20386;-68
2023/09/21 00:38:47;;;;;;;9.25;3.08;;;;;;;;;;7368359;19;20011;-70
2023/09/21 00:41:12;;;;;;;8.00;3.17;;;;;;;;;;7390187;19;20710;-69
2023/09/21 00:43:37;;;;;;;6.28;2.88;;;;;;;;;;7366488;19;20014;-68
2023/09/21 00:46:03;;;;;;;7.38;2.95;;;;;;;;;;7367446;19;20080;-67
2023/09/21 00:48:36;;;;;;;5.60;2.72;;;;;;;;;;7366515;19;20507;-68
2023/09/21 00:51:05;;;;;;;10.38;3.05;;;;;;;;;;7367608;19;20353;-69
2023/09/21 00:53:31;;;;;;;5.18;3.00;;;;;;;;;;7364856;19;20006;-68
2023/09/21 00:56:02;;;;;;;6.13;3.08;;;;;;;;;;7388841;19;19998;-68
2023/09/21 00:58:30;;;;;;;;;;;;;;;;;;7366897;19;20007;-68
2023/09/21 01:00:56;;;;;;;6.13;3.03;;;;;;;;;;7367305;19;20333;-68
2023/09/21 01:03:24;;;;;;;6.60;3.00;;;;;;;;;;7370175;19;20463;-68
2023/09/21 01:05:50;;;;;;;6.22;3.03;;;;;;;;;;7368423;19;20011;-69
2023/09/21 01:08:18;;;;;;;5.10;2.85;;;;;;;;;;7369884;19;20055;-69
2023/09/21 01:10:49;;;;;;;7.80;3.25;;;;;;;;;;7389273;19;20130;-69
2023/09/21 01:13:15;;;;;;;6.32;3.30;;;;;;;;;;7363872;19;20006;-69
2023/09/21 01:15:48;;;;;;;7.30;3.40;;;;;;;;;;7366466;19;20006;-68
2023/09/21 01:18:16;;;;;;;9.15;3.17;;;;;;;;;;7367515;19;20026;-68
2023/09/21 01:20:42;;;;;;;7.07;3.63;;;;;;;;;;7366333;19;20014;-69
2023/09/21 01:23:19;;;;;;;6.88;3.08;;;;;;;;;;7385908;19;20003;-68
2023/09/21 01:25:51;;;;;;;8.40;3.42;;;;;;;;;;7366056;19;20684;-68
2023/09/21 01:28:23;;;;;;;7.85;3.30;;;;;;;;;;7364561;19;20010;-68
2023/09/21 01:30:51;;;;;;;7.53;3.22;;;;;;;;;;7365957;19;20010;-68
2023/09/21 01:33:17;;;;;;;11.70;3.80;;;;;;;;;;7365354;19;20019;-68
2023/09/21 01:35:46;;;;;;;7.70;3.53;;;;;;;;;;7365016;19;20274;-68
2023/09/21 01:38:12;;;;;;;7.15;3.50;;;;;;;;;;7387491;19;19998;-69
2023/09/21 01:40:38;;;;;;;7.50;3.45;;;;;;;;;;7363915;19;20031;-69
2023/09/21 01:43:07;;;;;;;6.10;3.60;;;;;;;;;;7359855;19;20026;-68
2023/09/21 01:45:34;;;;;;;6.03;2.90;;;;;;;;;;7361375;19;20010;-68
2023/09/21 01:48:00;;;;;;;7.57;3.58;;;;;;;;;;7363157;19;20006;-70
2023/09/21 01:50:28;;;;;;;11.57;3.42;;;;;;;;;;7360817;19;20013;-68
2023/09/21 01:52:54;;;;;;;9.13;3.40;;;;;;;;;;7385928;19;20019;-68
2023/09/21 01:55:20;;;;;;;10.07;4.00;;;;;;;;;;7371199;19;20004;-68
2023/09/21 01:57:45;;;;;;;9.65;3.75;;;;;;;;;;7372026;19;20520;-68
2023/09/21 02:00:27;;;;;;;8.38;3.42;;;;;;;;;;7372793;19;20010;-68
2023/09/21 02:02:53;;;;;;;8.02;3.70;;;;;;;;;;7370586;19;20135;-69
2023/09/21 02:05:19;;;;;;;10.35;3.45;;;;;;;;;;7372109;19;20006;-68
2023/09/21 02:07:46;;;;;;;6.75;3.83;;;;;;;;;;7395889;19;20477;-68
2023/09/21 02:10:13;;;;;;;11.48;3.80;;;;;;;;;;7370667;19;20015;-69
2023/09/21 02:12:38;;;;;;;9.80;3.50;;;;;;;;;;7370756;19;20010;-68
2023/09/21 02:15:10;;;;;;;11.77;3.47;;;;;;;;;;7372176;19;20432;-68
2023/09/21 02:17:40;;;;;;;6.93;3.63;;;;;;;;;;7371917;19;20014;-68
2023/09/21 02:20:16;;;;;;;9.93;3.30;;;;;;;;;;7395204;19;20066;-68
2023/09/21 02:22:49;;;;;;;8.13;3.30;;;;;;;;;;7370816;19;20014;-68
2023/09/21 02:25:16;;;;;;;10.70;3.88;;;;;;;;;;7372176;19;20384;-69
2023/09/21 02:27:47;;;;;;;7.68;3.47;;;;;;;;;;7372273;19;20457;-69
2023/09/21 02:30:16;;;;;;;9.15;3.75;;;;;;;;;;7371486;19;19998;-68
2023/09/21 02:32:48;;;;;;;10.70;3.30;;;;;;;;;;7370872;19;20463;-68
2023/09/21 02:35:19;;;;;;;7.53;4.05;;;;;;;;;;7373797;19;20074;-68
2023/09/21 02:37:48;;;;;;;9.05;4.25;;;;;;;;;;7396449;19;20001;-69
2023/09/21 02:40:16;;;;;;;7.15;3.72;;;;;;;;;;7371206;19;20342;-69
2023/09/21 02:42:45;;;;;;;7.85;3.45;;;;;;;;;;7373390;19;20002;-68
2023/09/21 02:45:11;;;;;;;6.03;3.15;;;;;;;;;;7377344;19;20461;-68
2023/09/21 02:47:38;;;;;;;8.32;3.38;;;;;;;;;;7374073;19;20078;-68
2023/09/21 02:50:12;;;;;;;8.40;3.55;;;;;;;;;;7390971;19;19998;-68
2023/09/21 02:52:38;;;;;;;8.65;3.25;;;;;;;;;;7368588;19;20376;-67
2023/09/21 02:55:04;;;;;;;5.72;3.00;;;;;;;;;;7370141;19;20007;-68
2023/09/21 02:57:29;;;;;;;6.68;3.00;;;;;;;;;;7370684;19;20667;-67
2023/09/21 02:59:55;;;;;;;7.60;2.83;;;;;;;;;;7370852;19;20014;-67
2023/09/21 03:02:20;;;;;;;8.15;3.45;;;;;;;;;;7369084;19;20010;-67
2023/09/21 03:04:48;;;;;;;7.15;3.50;;;;;;;;;;7391717;19;20006;-68
2023/09/21 03:07:14;;;;;;;6.95;3.58;;;;;;;;;;7368065;19;20009;-70
2023/09/21 03:09:39;;;;;;;6.85;3.08;;;;;;;;;;7368875;19;20010;-70
2023/09/21 03:12:04;;;;;;;8.10;3.53;;;;;;;;;;7368472;19;20003;-68
2023/09/21 03:14:30;;;;;;;6.18;3.25;;;;;;;;;;7369377;19;20022;-68
2023/09/21 03:16:58;;;;;;;8.93;3.70;;;;;;;;;;7390728;19;20006;-68
2023/09/21 03:19:25;;;;;;;6.63;3.47;;;;;;;;;;7369099;19;20031;-68
2023/09/21 03:21:50;;;;;;;8.60;4.03;;;;;;;;;;7367698;19;20003;-68
2023/09/21 03:24:15;;;;;;;9.60;4.32;;;;;;;;;;7368574;19;20488;-68
2023/09/21 03:26:43;;;;;;;10.52;3.90;;;;;;;;;;7369508;19;20059;-68
2023/09/21 03:29:12;;;;;;;8.63;3.60;;;;;;;;;;7390178;19;19999;-68
2023/09/21 03:31:38;;;;;;;6.45;4.00;;;;;;;;;;7370004;19;20013;-68
2023/09/21 03:34:03;;;;;;;9.25;4.15;;;;;;;;;;7369668;19;20006;-69
2023/09/21 03:36:28;;;;;;;7.07;4.18;;;;;;;;;;7368921;19;20010;-69
2023/09/21 03:38:54;;;;;;;10.65;4.75;;;;;;;;;;7369478;19;20015;-69
2023/09/21 03:41:20;;;;;;;6.57;3.38;;;;;;;;;;7368388;19;19998;-70
2023/09/21 03:43:45;;;;;;;7.78;3.67;;;;;;;;;;7388522;19;20023;-67
2023/09/21 03:46:11;;;;;;;6.20;3.70;;;;;;;;;;7368810;19;20144;-69
2023/09/21 03:48:37;;;;;;;7.10;3.88;;;;;;;;;;7369032;19;20045;-69
2023/09/21 03:51:03;;;;;;;8.35;4.10;;;;;;;;;;7368625;19;20035;-68
2023/09/21 03:53:28;;;;;;;7.10;4.07;;;;;;;;;;7366833;19;20006;-68
2023/09/21 03:55:56;;;;;;;7.32;3.30;;;;;;;;;;7390520;19;20006;-69
2023/09/21 03:58:21;;;;;;;7.60;3.90;;;;;;;;;;7367981;19;20066;-68
2023/09/21 04:00:47;;;;;;;8.93;3.88;;;;;;;;;;7369660;19;20019;-68
2023/09/21 04:03:12;;;;;;;9.75;3.90;;;;;;;;;;7368614;19;20027;-68
2023/09/21 04:05:40;;;;;;;8.00;4.13;;;;;;;;;;7368942;19;20011;-69
2023/09/21 04:08:06;;;;;;;9.90;3.85;;;;;;;;;;7394148;19;20003;-69
2023/09/21 04:10:32;;;;;;;10.02;3.60;;;;;;;;;;7371483;19;20007;-68
2023/09/21 04:12:58;;;;;;;9.98;3.85;;;;;;;;;;7368149;19;20374;-69
2023/09/21 04:15:30;;;;;;;8.70;4.10;;;;;;;;;;7367528;19;20007;-68
2023/09/21 04:17:57;;;;;;;7.07;4.03;;;;;;;;;;7368949;19;20461;-69
2023/09/21 04:20:23;;;;;;;9.35;4.00;;;;;;;;;;7368691;19;19998;-68
2023/09/21 04:22:49;;;;;;;7.07;4.00;;;;;;;;;;7388606;19;20318;-69
2023/09/21 04:25:16;;;;;;;7.60;4.85;;;;;;;;;;7368292;19;20020;-68
2023/09/21 04:27:46;;;;;;;8.20;4.22;;;;;;;;;;7368569;19;20019;-69
2023/09/21 04:30:16;;;;;;;7.55;4.35;;;;;;;;;;7367577;19;20003;-69
2023/09/21 04:32:45;;;;;;;8.63;4.43;;;;;;;;;;7367775;19;20386;-67
2023/09/21 04:35:10;;;;;;;8.32;3.92;;;;;;;;;;7390159;19;19991;-68
2023/09/21 04:37:38;;;;;;;9.60;4.32;;;;;;;;;;7367532;19;20021;-68
2023/09/21 04:40:05;;;;;;;6.50;4.15;;;;;;;;;;7367373;19;19998;-68
2023/09/21 04:42:32;;;;;;;7.70;4.03;;;;;;;;;;7364666;19;20115;-68
2023/09/21 04:44:58;;;;;;;9.70;4.10;;;;;;;;;;7367190;19;20128;-68
2023/09/21 04:47:24;;;;;;;9.38;3.75;;;;;;;;;;7367450;19;20688;-68
2023/09/21 04:49:50;;;;;;;8.57;4.22;;;;;;;;;;7388086;19;20031;-68
2023/09/21 04:52:16;;;;;;;10.38;4.38;;;;;;;;;;7365457;19;20475;-68
2023/09/21 04:54:41;;;;;;;9.35;4.03;;;;;;;;;;7367049;19;20007;-68
2023/09/21 04:57:06;;;;;;;8.25;4.18;;;;;;;;;;7369527;19;20440;-69
2023/09/21 04:59:32;;;;;;;8.52;3.95;;;;;;;;;;7368320;19;20961;-69
2023/09/21 05:01:57;;;;;;;8.30;4.45;;;;;;;;;;7383784;19;20015;-71
2023/09/21 05:04:22;;;;;;;9.20;3.97;;;;;;;;;;7366791;19;20091;-68
2023/09/21 05:06:48;;;;;;;11.95;4.63;;;;;;;;;;7366449;19;20025;-69
2023/09/21 05:09:15;;;;;;;8.65;4.10;;;;;;;;;;7365308;19;20465;-69
2023/09/21 05:11:40;;;;;;;9.18;4.47;;;;;;;;;;7359925;19;20011;-69
2023/09/21 05:14:06;;;;;;;8.20;4.13;;;;;;;;;;7385167;19;20013;-67
2023/09/21 05:16:34;;;;;;;7.40;3.88;;;;;;;;;;7365106;19;20002;-67
2023/09/21 05:19:00;;;;;;;10.48;4.13;;;;;;;;;;7365079;19;20070;-68
2023/09/21 05:21:25;;;;;;;11.68;4.32;;;;;;;;;;7364385;19;20003;-68
2023/09/21 05:23:51;;;;;;;15.80;4.80;;;;;;;;;;7363224;19;20009;-69
2023/09/21 05:26:16;;;;;;;11.73;4.43;;;;;;;;;;7365610;19;19998;-68
2023/09/21 05:28:43;;;;;;;10.68;4.53;;;;;;;;;;7390139;19;20014;-68
2023/09/21 05:31:09;;;;;;;23.42;5.00;;;;;;;;;;7370319;19;20018;-68
2023/09/21 05:33:35;;;;;;;9.98;4.38;;;;;;;;;;7371867;19;20002;-68
2023/09/21 05:36:04;;;;;;;12.65;4.60;;;;;;;;;;7371604;19;20023;-68
2023/09/21 05:38:32;;;;;;;13.30;4.55;;;;;;;;;;7358141;19;20011;-67
2023/09/21 05:41:04;;;;;;;11.40;4.80;;;;;;;;;;7391179;19;20010;-69
2023/09/21 05:43:30;;;;;;;14.25;4.65;;;;;;;;;;7373976;19;20005;-69
2023/09/21 05:45:56;;;;;;;10.98;4.82;;;;;;;;;;7370692;19;20003;-69
2023/09/21 05:48:21;;;;;;;14.80;4.65;;;;;;;;;;7370107;19;20011;-69
2023/09/21 05:50:47;;;;;;;14.80;4.63;;;;;;;;;;7369426;19;20014;-68
2023/09/21 05:53:12;;;;;;;20.00;10.65;;;;;;;;;;7390373;19;20361;-69
2023/09/21 05:55:38;;;;;;;16.88;8.20;;;;;;;;;;7372145;19;20015;-68
2023/09/21 05:58:04;;;;;;;16.63;5.95;;;;;;;;;;7370125;19;20014;-68
2023/09/21 06:00:33;;;;;;;15.05;5.00;;;;;;;;;;7371844;19;20027;-68
2023/09/21 06:03:01;;;;;;;16.50;4.80;;;;;;;;;;7370114;19;20070;-68
2023/09/21 06:05:27;;;;;;;16.67;5.60;;;;;;;;;;7371339;19;20007;-70
2023/09/21 06:07:53;;;;;;;12.60;4.47;;;;;;;;;;7391570;19;20011;-68
2023/09/21 06:10:18;;;;;;;14.70;4.20;;;;;;;;;;7366729;19;20002;-68
2023/09/21 06:12:43;;;;;;;20.10;5.28;;;;;;;;;;7367252;19;20074;-67
2023/09/21 06:15:10;;;;;;;15.65;5.15;;;;;;;;;;7365416;19;20002;-60
2023/09/21 06:17:35;;;;;;;13.38;5.00;;;;;;;;;;7373262;19;20051;-68
2023/09/21 06:20:01;;;;;;;13.60;4.93;;;;;;;;;;7395435;19;20006;-69
2023/09/21 06:22:27;;;;;;;16.77;5.18;;;;;;;;;;7360973;19;19999;-68
2023/09/21 06:24:53;;;;;;;13.30;5.15;;;;;;;;;;7368970;19;20007;-69
2023/09/21 06:27:19;;;;;;;17.50;5.30;;;;;;;;;;7373234;19;20007;-67
2023/09/21 06:29:44;;;;;;;19.15;5.93;;;;;;;;;;7370590;19;20453;-68
2023/09/21 06:32:11;;;;;;;23.88;5.18;;;;;;;;;;7390475;19;20367;-69
2023/09/21 06:34:36;;;;;;;21.65;5.60;;;;;;;;;;7371040;19;20020;-69
2023/09/21 06:37:02;;;;;;;17.48;5.30;;;;;;;;;;7370526;19;20769;-68
2023/09/21 06:39:28;;;;;;;15.80;5.25;;;;;;;;;;7369780;19;20015;-67
2023/09/21 06:41:53;;;;;;;16.70;5.80;;;;;;;;;;7369336;19;20006;-72
2023/09/21 06:44:19;;;;;;;18.95;5.60;;;;;;;;;;7371138;19;20005;-67
2023/09/21 06:46:44;;;;;;;12.75;5.25;;;;;;;;;;7395172;19;20472;-68
2023/09/21 06:49:10;;;;;;;16.40;5.07;;;;;;;;;;7367478;19;20007;-68
2023/09/21 06:51:35;;;;;;;18.90;5.00;;;;;;;;;;7371006;19;20611;-67
2023/09/21 06:54:01;;;;;;;10.35;5.00;;;;;;;;;;7369169;19;20456;-71
2023/09/21 06:56:29;;;;;;;10.52;4.50;;;;;;;;;;7366064;19;20005;-68
2023/09/21 06:58:56;;;;;;;8.27;4.30;;;;;;;;;;7388265;19;20028;-68
2023/09/21 07:01:22;;;;;;;8.65;4.53;;;;;;;;;;7363561;19;20487;-68
2023/09/21 07:03:48;;;;;;;8.85;4.68;;;;;;;;;;7365153;19;20006;-69
2023/09/21 07:06:14;;;;;;;7.47;4.20;;;;;;;;;;7365450;19;20002;-68
2023/09/21 07:08:39;;;;;;;11.57;4.43;;;;;;;;;;7366441;19;20026;-69
2023/09/21 07:11:05;;;;;;;9.60;4.68;;;;;;;;;;7389656;19;20025;-69
2023/09/21 07:13:31;;;;;;;9.55;4.07;;;;;;;;;;7366689;19;20044;-70
2023/09/21 07:15:58;;;;;;;14.45;7.38;;;;;;;;;;7369114;19;20455;-68
2023/09/21 07:18:25;;;;;;;12.23;4.43;;;;;;;;;;7369611;19;20019;-69
2023/09/21 07:20:50;;;;;;;11.32;4.07;;;;;;;;;;7369426;19;20010;-67
2023/09/21 07:23:16;;;;;;;9.07;4.53;;;;;;;;;;7367940;19;20007;-68
2023/09/21 07:25:41;;;;;;;10.07;4.13;;;;;;;;;;7396524;19;20078;-68
2023/09/21 07:28:06;;;;;;;7.40;4.07;;;;;;;;;;7372507;19;20023;-69
2023/09/21 07:30:32;;;;;;;8.23;4.30;;;;;;;;;;7355472;19;20010;-68
2023/09/21 07:33:00;;;;;;;6.95;3.88;;;;;;;;;;7368425;19;20018;-68
2023/09/21 07:35:26;;;;;;;10.18;4.32;;;;;;;;;;7369813;19;20022;-68
2023/09/21 07:37:52;;;;;;;7.35;3.85;;;;;;;;;;7389458;19;19998;-68
2023/09/21 07:40:18;;;;;;;7.70;3.92;;;;;;;;;;7365987;19;20006;-68
2023/09/21 07:42:45;;;;;;;8.20;4.10;;;;;;;;;;7363255;19;20042;-69
2023/09/21 07:45:11;;;;;;;6.88;4.07;;;;;;;;;;7368494;19;20014;-67
2023/09/21 07:47:40;;;;;;;8.65;4.18;;;;;;;;;;7368100;19;20014;-68
2023/09/21 07:50:06;;;;;;;8.70;4.00;;;;;;;;;;7386181;19;20005;-68
2023/09/21 07:52:35;;;;;;;9.65;4.25;;;;;;;;;;7367671;19;20002;-69
2023/09/21 07:55:02;;;;;;;8.25;4.13;;;;;;;;;;7368722;19;20010;-68
2023/09/21 07:57:36;;;;;;;8.82;3.95;;;;;;;;;;7366303;19;20085;-68
2023/09/21 08:00:04;;;;;;;7.63;4.00;;;;;;;;;;7368084;19;20014;-68
2023/09/21 08:02:30;;;;;;;8.35;4.10;;;;;;;;;;7367281;19;20018;-69
2023/09/21 08:04:56;;;;;;;12.00;4.30;;;;;;;;;;7386787;19;20011;-68
2023/09/21 08:07:26;;;;;;;7.80;3.78;;;;;;;;;;7366178;19;20106;-68
2023/09/21 08:09:54;;;;;;;12.65;4.00;;;;;;;;;;7366672;19;20022;-68
2023/09/21 08:12:20;;;;;;;6.63;3.65;;;;;;;;;;7364449;19;20018;-68
2023/09/21 08:14:45;;;;;;;7.97;3.90;;;;;;;;;;7367065;19;20014;-68
2023/09/21 08:17:10;;;;;;;7.18;3.38;;;;;;;;;;7388103;19;19999;-68
2023/09/21 08:19:37;;;;;;;5.88;3.25;;;;;;;;;;7366008;19;20006;-68
2023/09/21 08:22:02;;;;;;;8.35;3.67;;;;;;;;;;7365398;19;20394;-71
2023/09/21 08:24:27;;;;;;;8.18;3.95;;;;;;;;;;7366994;19;20031;-69
2023/09/21 08:26:53;;;;;;;6.55;3.65;;;;;;;;;;7364747;19;20018;-67
2023/09/21 08:29:21;;;;;;;12.18;3.83;;;;;;;;;;7366267;19;20003;-69
2023/09/21 08:31:47;;;;;;;12.77;3.75;;;;;;;;;;7387860;19;20017;-69
2023/09/21 08:34:12;;;;;;;9.38;3.13;;;;;;;;;;7365994;19;20010;-68
2023/09/21 08:36:37;;;;;;;6.82;3.60;;;;;;;;;;7366973;19;20011;-69
2023/09/21 08:39:04;;;;;;;5.63;3.08;;;;;;;;;;7365304;19;20487;-68
2023/09/21 08:41:30;;;;;;;8.05;3.20;;;;;;;;;;7366858;19;20007;-68
2023/09/21 08:43:56;;;;;;;5.65;3.20;;;;;;;;;;7387645;19;20362;-67
2023/09/21 08:46:21;;;;;;;16.02;10.77;;;;;;;;;;7364600;19;20017;-69
2023/09/21 08:48:49;;;;;;;24.98;16.52;;;;;;;;;;7365851;19;20019;-69
2023/09/21 08:51:17;;;;;;;8.65;4.50;;;;;;;;;;7360950;19;20006;-69
2023/09/21 08:53:47;;;;;;;5.82;2.80;;;;;;;;;;7364333;19;20031;-68
2023/09/21 08:56:13;;;;;;;6.78;3.00;;;;;;;;;;7388778;19;20037;-68
2023/09/21 08:58:41;;;;;;;6.85;3.00;;;;;;;;;;7364400;19;20380;-68
2023/09/21 09:01:07;;;;;;;6.68;3.40;;;;;;;;;;7366276;19;20010;-69
2023/09/21 09:03:33;;;;;;;6.85;3.22;;;;;;;;;;7364871;19;20077;-68
2023/09/21 09:05:59;;;;;;;7.00;3.00;;;;;;;;;;7366750;19;20384;-68
2023/09/21 09:08:25;;;;;;;6.47;3.30;;;;;;;;;;7365455;19;20014;-68
2023/09/21 09:10:53;;;;;;;4.80;2.80;;;;;;;;;;7385442;19;20013;-67
2023/09/21 09:13:19;;;;;;;5.45;2.75;;;;;;;;;;7362366;19;20496;-68
2023/09/21 09:15:45;;;;;;;3.97;2.70;;;;;;;;;;7365624;19;20039;-68
2023/09/21 09:18:12;;;;;;;5.60;2.90;;;;;;;;;;7366058;19;20002;-68
2023/09/21 09:20:38;;;;;;;6.25;2.88;;;;;;;;;;7366251;19;20032;-68
2023/09/21 09:23:10;;;;;;;5.88;2.95;;;;;;;;;;7386056;19;19999;-67
2023/09/21 09:25:36;;;;;;;8.80;3.05;;;;;;;;;;7365703;19;20354;-69
2023/09/21 09:28:03;;;;;;;6.90;3.03;;;;;;;;;;7364082;19;20007;-69
2023/09/21 09:30:29;;;;;;;5.22;2.80;;;;;;;;;;7362786;19;20027;-69
2023/09/21 09:32:55;;;;;;;4.65;2.42;;;;;;;;;;7363547;19;20024;-69
2023/09/21 09:35:21;;;;;;;13.90;3.22;;;;;;;;;;7365460;19;20066;-69
2023/09/21 09:37:49;;;;;;;5.85;2.60;;;;;;;;;;7386603;19;19999;-68
2023/09/21 09:40:24;;;;;;;5.95;2.55;;;;;;;;;;7364476;19;20017;-67
2023/09/21 09:42:51;;;;;;;7.45;2.80;;;;;;;;;;7362084;19;20444;-70
2023/09/21 09:45:27;;;;;;;4.88;2.55;;;;;;;;;;7365716;19;20010;-68
2023/09/21 09:48:01;;;;;;;4.40;2.63;;;;;;;;;;7365498;19;20007;-68
2023/09/21 09:50:33;;;;;;;5.75;2.75;;;;;;;;;;7363267;19;20019;-68
2023/09/21 09:53:13;;;;;;;5.63;2.88;;;;;;;;;;7385472;19;19999;-69
2023/09/21 09:55:42;;;;;;;6.28;2.90;;;;;;;;;;7364828;19;20534;-68
2023/09/21 09:58:08;;;;;;;5.10;2.75;;;;;;;;;;7362621;19;20010;-68
2023/09/21 10:00:44;;;;;;;5.43;2.53;;;;;;;;;;7363652;19;20007;-68
2023/09/21 10:03:11;;;;;;;4.57;2.72;;;;;;;;;;7361979;19;20015;-69
2023/09/21 10:05:39;;;;;;;5.72;2.63;;;;;;;;;;7364805;19;20019;-68
2023/09/21 10:08:07;;;;;;;6.47;2.80;;;;;;;;;;7386490;19;20003;-67
2023/09/21 10:10:38;;;;;;;9.60;3.13;;;;;;;;;;7364768;19;20013;-68
2023/09/21 10:13:05;;;;;;;6.68;2.55;;;;;;;;;;7368538;19;20018;-67
2023/09/21 10:15:33;;;;;;;5.22;2.70;;;;;;;;;;7375179;19;20035;-67
2023/09/21 10:17:59;;;;;;;5.38;2.80;;;;;;;;;;7373368;19;20667;-67
2023/09/21 10:20:27;;;;;;;6.47;2.60;;;;;;;;;;7371880;19;20003;-69
2023/09/21 10:22:58;;;;;;;5.63;2.90;;;;;;;;;;7390816;19;20676;-69
2023/09/21 10:25:44;;;;;;;5.25;2.58;;;;;;;;;;7371382;19;20007;-69
2023/09/21 10:28:27;;;;;;;4.55;2.38;;;;;;;;;;7370996;19;20014;-68
2023/09/21 10:31:09;;;;;;;4.82;2.78;;;;;;;;;;7370239;19;20011;-68
2023/09/21 10:34:07;;;;;;;4.88;2.50;;;;;;;;;;7370071;19;20014;-69
2023/09/21 10:36:37;;;;;;;5.60;2.60;;;;;;;;;;7370482;19;20009;-68
2023/09/21 10:39:06;;;;;;;4.47;2.72;;;;;;;;;;7370912;19;20010;-68
2023/09/21 10:41:34;;;;;;;5.38;2.53;;;;;;;;;;7371844;19;20429;-68
2023/09/21 10:44:02;;;;;;;6.00;2.63;;;;;;;;;;7397247;19;20028;-68
2023/09/21 10:46:31;;;;;;;5.55;2.75;;;;;;;;;;7375072;19;20074;-68
2023/09/21 10:49:05;;;;;;;5.10;2.42;;;;;;;;;;7372620;19;20567;-68
2023/09/21 10:51:33;;;;;;;5.38;2.72;;;;;;;;;;7369860;19;20010;-68
2023/09/21 10:53:59;;;;;;;4.18;2.47;;;;;;;;;;7370220;19;20501;-68
2023/09/21 10:56:27;;;;;;;5.40;2.55;;;;;;;;;;7370447;19;20019;-73
2023/09/21 10:58:53;;;;;;;6.53;2.60;;;;;;;;;;7391374;19;20013;-68
2023/09/21 11:01:18;;;;;;;5.22;2.83;;;;;;;;;;7368609;19;20567;-69
2023/09/21 11:03:47;;;;;;;3.50;2.10;;;;;;;;;;7363530;19;20006;-69
2023/09/21 11:06:16;;;;;;;5.15;2.17;;;;;;;;;;7357849;19;20010;-69
2023/09/21 11:08:41;;;;;;;7.38;2.70;;;;;;;;;;7365034;19;20021;-69
2023/09/21 11:11:07;;;;;;;4.88;2.42;;;;;;;;;;7392098;19;20066;-69
2023/09/21 11:13:32;;;;;;;4.50;2.60;;;;;;;;;;7365671;19;20010;-69
2023/09/21 11:15:57;;;;;;;5.68;2.30;;;;;;;;;;7369530;19;20035;-69
2023/09/21 11:18:23;;;;;;;4.88;2.40;;;;;;;;;;7369939;19;20543;-69
2023/09/21 11:20:49;;;;;;;4.65;2.40;;;;;;;;;;7369540;19;20082;-68
2023/09/21 11:23:18;;;;;;;4.68;2.20;;;;;;;;;;7379535;19;20010;-68
2023/09/21 11:25:47;;;;;;;6.10;2.40;;;;;;;;;;7389170;19;20003;-69
2023/09/21 11:28:13;;;;;;;5.95;2.67;;;;;;;;;;7369007;19;20034;-68
2023/09/21 11:30:42;;;;;;;5.90;2.30;;;;;;;;;;7368107;19;20376;-68
2023/09/21 11:33:08;;;;;;;9.50;2.50;;;;;;;;;;7369107;19;20468;-69
2023/09/21 11:35:33;;;;;;;6.63;2.60;;;;;;;;;;7369611;19;19999;-69
2023/09/21 11:37:59;;;;;;;8.15;2.53;;;;;;;;;;7391360;19;19999;-69
2023/09/21 11:40:26;;;;;;;4.82;2.40;;;;;;;;;;7368980;19;20006;-68
2023/09/21 11:42:57;;;;;;;4.70;2.15;;;;;;;;;;7367387;19;20098;-68
2023/09/21 11:45:25;;;;;;;4.75;2.50;;;;;;;;;;7368491;19;20034;-68
2023/09/21 11:47:56;;;;;;;5.10;2.20;;;;;;;;;;7369757;19;20468;-67
2023/09/21 11:50:25;;;;;;;5.28;2.60;;;;;;;;;;7367421;19;20011;-68
2023/09/21 11:52:54;;;;;;;6.20;2.70;;;;;;;;;;7388844;19;19998;-67
2023/09/21 11:55:27;;;;;;;6.53;2.55;;;;;;;;;;7368289;19;20105;-68
2023/09/21 11:58:04;;;;;;;5.50;2.65;;;;;;;;;;7367478;19;20006;-67
2023/09/21 12:00:43;;;;;;;5.05;2.50;;;;;;;;;;7368829;19;20010;-69
2023/09/21 12:03:13;;;;;;;5.22;2.53;;;;;;;;;;7367550;19;20037;-68
2023/09/21 12:05:42;;;;;;;5.13;2.35;;;;;;;;;;7369033;19;20002;-69
2023/09/21 12:08:11;;;;;;;4.93;2.38;;;;;;;;;;7390287;19;20823;-69
2023/09/21 12:10:36;;;;;;;5.28;2.55;;;;;;;;;;7366312;19;20003;-67
2023/09/21 12:13:03;;;;;;;6.07;2.72;;;;;;;;;;7365422;19;20006;-68
2023/09/21 12:15:28;;;;;;;4.95;2.63;;;;;;;;;;7367056;19;20008;-68
2023/09/21 12:17:54;;;;;;;7.15;2.38;;;;;;;;;;7367579;19;20097;-68
2023/09/21 12:20:20;;;;;;;3.78;2.08;;;;;;;;;;7367512;19;19999;-68
2023/09/21 12:22:46;;;;;;;5.55;2.30;;;;;;;;;;7385900;19;20460;-67
2023/09/21 12:25:11;;;;;;;4.07;2.25;;;;;;;;;;7367296;19;20007;-69
2023/09/21 12:27:38;;;;;;;4.78;2.10;;;;;;;;;;7367449;19;20023;-68
2023/09/21 12:30:12;;;;;;;5.03;2.10;;;;;;;;;;7366342;19;20006;-68
2023/09/21 12:32:39;;;;;;;3.65;2.15;;;;;;;;;;7364976;19;20010;-68
2023/09/21 12:35:07;;;;;;;4.63;2.15;;;;;;;;;;7388613;19;20472;-67
2023/09/21 12:37:33;;;;;;;4.82;2.35;;;;;;;;;;7365350;19;20081;-67
2023/09/21 12:39:58;;;;;;;6.05;2.00;;;;;;;;;;7366751;19;20481;-66
2023/09/21 12:42:23;;;;;;;5.68;1.95;;;;;;;;;;7364978;19;20013;-68
2023/09/21 12:44:48;;;;;;;4.97;2.00;;;;;;;;;;7366875;19;20010;-68
2023/09/21 12:47:14;;;;;;;4.00;1.90;;;;;;;;;;7386119;19;20002;-68
2023/09/21 12:49:40;;;;;;;5.00;2.00;;;;;;;;;;7374787;19;20005;-67
2023/09/21 12:52:05;;;;;;;3.33;1.88;;;;;;;;;;7365183;19;20014;-67
2023/09/21 12:54:31;;;;;;;2.88;1.77;;;;;;;;;;7366409;19;20031;-67
2023/09/21 12:56:56;;;;;;;5.97;2.08;;;;;;;;;;7367642;19;20090;-68
2023/09/21 12:59:21;;;;;;;3.35;1.60;;;;;;;;;;7366157;19;20831;-67
2023/09/21 13:01:47;;;;;;;3.60;1.65;;;;;;;;;;7387271;19;20525;-67
2023/09/21 13:04:13;;;;;;;3.08;1.80;;;;;;;;;;7364205;19;20006;-68
2023/09/21 13:06:38;;;;;;;3.10;1.90;;;;;;;;;;7366550;19;20018;-69
2023/09/21 13:09:06;;;;;;;4.13;1.70;;;;;;;;;;7365378;19;19998;-69
2023/09/21 13:11:32;;;;;;;7.03;1.70;;;;;;;;;;7366150;19;20710;-68
2023/09/21 13:13:57;;;;;;;3.45;1.85;;;;;;;;;;7388447;19;20011;-68
2023/09/21 13:16:22;;;;;;;3.30;1.70;;;;;;;;;;7366111;19;20011;-68
2023/09/21 13:18:48;;;;;;;3.88;1.63;;;;;;;;;;7359090;19;20014;-68
2023/09/21 13:21:15;;;;;;;4.85;1.77;;;;;;;;;;7362713;19;20044;-68
2023/09/21 13:23:41;;;;;;;2.85;1.60;;;;;;;;;;7361680;19;20015;-67
2023/09/21 13:26:07;;;;;;;3.72;1.92;;;;;;;;;;7387636;19;19991;-68
2023/09/21 13:28:33;;;;;;;3.97;1.60;;;;;;;;;;7365234;19;20228;-68
2023/09/21 13:30:58;;;;;;;3.33;1.67;;;;;;;;;;7365102;19;20005;-69
2023/09/21 13:33:24;;;;;;;3.22;1.77;;;;;;;;;;7363343;19;20018;-67
2023/09/21 13:35:49;;;;;;;3.72;1.98;;;;;;;;;;7365583;19;20010;-70
2023/09/21 13:38:15;;;;;;;2.60;1.50;;;;;;;;;;7377157;19;20024;-67
2023/09/21 13:40:41;;;;;;;2.97;1.80;;;;;;;;;;7382428;19;20002;-67
2023/09/21 13:43:06;;;;;;;3.90;1.80;;;;;;;;;;7362630;19;20006;-67
2023/09/21 13:45:34;;;;;;;2.95;1.45;;;;;;;;;;7365247;19;20002;-67
2023/09/21 13:48:00;;;;;;;2.63;1.33;;;;;;;;;;7364885;19;20006;-69
2023/09/21 13:50:25;;;;;;;3.28;1.50;;;;;;;;;;7370374;19;20023;-67
2023/09/21 13:52:50;;;;;;;3.05;1.70;;;;;;;;;;7392303;19;20341;-67
2023/09/21 13:55:16;;;;;;;4.00;1.38;;;;;;;;;;7372283;19;20041;-68
2023/09/21 13:57:41;;;;;;;2.13;1.30;;;;;;;;;;7371466;19;20118;-67
2023/09/21 14:00:13;;;;;;;2.58;1.50;;;;;;;;;;7371648;19;20489;-67
2023/09/21 14:02:39;;;;;;;2.03;1.40;;;;;;;;;;7370773;19;20377;-69
2023/09/21 14:05:06;;;;;;;3.92;1.50;;;;;;;;;;7393827;19;20003;-68
2023/09/21 14:07:31;;;;;;;3.15;1.48;;;;;;;;;;7370735;19;20041;-69
2023/09/21 14:09:57;;;;;;;3.85;1.90;;;;;;;;;;7366517;19;19998;-68
2023/09/21 14:12:22;;;;;;;2.65;1.40;;;;;;;;;;7370050;19;20496;-68
2023/09/21 14:14:47;;;;;;;2.88;1.50;;;;;;;;;;7372215;19;20009;-68
2023/09/21 14:17:14;;;;;;;2.05;1.40;;;;;;;;;;7394691;19;19998;-68
2023/09/21 14:19:39;;;;;;;2.90;1.30;;;;;;;;;;7372846;19;20113;-68
2023/09/21 14:22:04;;;;;;;4.97;1.73;;;;;;;;;;7370119;19;20010;-68
2023/09/21 14:24:30;;;;;;;2.38;1.50;;;;;;;;;;7369180;19;20495;-68
2023/09/21 14:26:55;;;;;;;4.20;1.60;;;;;;;;;;7371500;19;20037;-67
2023/09/21 14:29:21;;;;;;;2.83;1.60;;;;;;;;;;7370736;19;20002;-67
2023/09/21 14:31:46;;;;;;;2.42;1.40;;;;;;;;;;7391870;19;20006;-68
2023/09/21 14:34:11;;;;;;;3.22;1.48;;;;;;;;;;7371011;19;20015;-67
2023/09/21 14:36:37;;;;;;;7.97;1.60;;;;;;;;;;7371593;19;20487;-67
2023/09/21 14:39:02;;;;;;;4.30;1.60;;;;;;;;;;7371498;19;20048;-68
2023/09/21 14:41:28;;;;;;;5.72;1.48;;;;;;;;;;7375575;19;20078;-67